Time;durP1;ratioP1;P1;durP2;ratioP2;P2;SDS_P1;SDS_P2;PMS_P1;PMS_P2;Temp;Humidity;BMP_temperature;BMP_pressure;BME280_temperature;BME280_humidity;BME280_pressure;Samples;Min_cycle;Max_cycle;Signal;HPM_P1;HPM_P2
2023/12/27 00:00:07;;;;;;;0.50;0.47;;;;;;;;;;5042981;28;20412;-63
2023/12/27 00:02:33;;;;;;;0.30;0.20;;;;;;;;;;5039776;28;20554;-63
2023/12/27 00:04:59;;;;;;;1.10;0.50;;;;;;;;;;5045186;28;20464;-63
2023/12/27 00:07:25;;;;;;;1.52;0.20;;;;;;;;;;5041058;28;20032;-62
2023/12/27 00:09:51;;;;;;;0.80;0.20;;;;;;;;;;5044288;28;20044;-62
2023/12/27 00:12:17;;;;;;;1.65;0.40;;;;;;;;;;5042591;28;20048;-62
2023/12/27 00:14:43;;;;;;;0.73;0.20;;;;;;;;;;5038879;28;20041;-62
2023/12/27 00:17:09;;;;;;;0.35;0.20;;;;;;;;;;5040692;28;20159;-62
2023/12/27 00:19:35;;;;;;;0.28;0.20;;;;;;;;;;5039234;28;20049;-62
2023/12/27 00:22:01;;;;;;;1.08;0.57;;;;;;;;;;5043091;28;20377;-62
2023/12/27 00:24:27;;;;;;;1.35;0.50;;;;;;;;;;5039865;28;20053;-62
2023/12/27 00:26:53;;;;;;;0.65;0.40;;;;;;;;;;5042055;28;20048;-62
2023/12/27 00:29:19;;;;;;;0.35;0.17;;;;;;;;;;5043382;28;20428;-62
2023/12/27 00:31:45;;;;;;;0.70;0.20;;;;;;;;;;5035653;28;20072;-62
2023/12/27 00:34:11;;;;;;;0.40;0.28;;;;;;;;;;5040543;28;20041;-62
2023/12/27 00:36:37;;;;;;;0.32;0.20;;;;;;;;;;5044511;28;20041;-62
2023/12/27 00:39:04;;;;;;;0.40;0.20;;;;;;;;;;5044509;28;20205;-62
2023/12/27 00:41:30;;;;;;;1.13;0.73;;;;;;;;;;5042800;28;20040;-63
2023/12/27 00:43:56;;;;;;;0.68;0.28;;;;;;;;;;5039674;28;20048;-62
2023/12/27 00:46:22;;;;;;;0.45;0.20;;;;;;;;;;5040684;28;20045;-62
2023/12/27 00:48:48;;;;;;;0.52;0.30;;;;;;;;;;5044081;28;20120;-62
2023/12/27 00:51:20;;;;;;;0.35;0.20;;;;;;;;;;5042434;28;20133;-62
2023/12/27 00:53:46;;;;;;;;;;;;;;;;;;5042094;28;20049;-62
2023/12/27 00:56:12;;;;;;;0.40;0.30;;;;;;;;;;5041093;28;19950;-63
2023/12/27 00:58:38;;;;;;;0.45;0.20;;;;;;;;;;5039619;28;20048;-62
2023/12/27 01:01:04;;;;;;;1.30;0.32;;;;;;;;;;5041291;28;20086;-62
2023/12/27 01:03:30;;;;;;;0.30;0.30;;;;;;;;;;5040084;28;20067;-63
2023/12/27 01:05:56;;;;;;;1.52;0.50;;;;;;;;;;5041314;28;20052;-62
2023/12/27 01:08:22;;;;;;;0.98;0.30;;;;;;;;;;5041230;28;20450;-62
2023/12/27 01:10:48;;;;;;;0.35;0.30;;;;;;;;;;5039339;28;20179;-62
2023/12/27 01:13:14;;;;;;;1.00;0.30;;;;;;;;;;5041331;28;20048;-62
2023/12/27 01:15:40;;;;;;;0.75;0.25;;;;;;;;;;5039670;28;20052;-62
2023/12/27 01:18:06;;;;;;;0.57;0.57;;;;;;;;;;5042858;28;20124;-62
2023/12/27 01:20:32;;;;;;;0.57;0.10;;;;;;;;;;5040106;28;20086;-62
2023/12/27 01:22:58;;;;;;;0.50;0.35;;;;;;;;;;5042682;28;20436;-62
2023/12/27 01:25:24;;;;;;;0.60;0.45;;;;;;;;;;5041187;28;20056;-62
2023/12/27 01:27:50;;;;;;;0.68;0.47;;;;;;;;;;5040744;28;20170;-62
2023/12/27 01:30:16;;;;;;;0.55;0.30;;;;;;;;;;5040661;28;20045;-62
2023/12/27 01:32:42;;;;;;;1.00;0.20;;;;;;;;;;5039687;28;20040;-62
2023/12/27 01:35:08;;;;;;;0.28;0.25;;;;;;;;;;5041824;28;20045;-62
2023/12/27 01:37:34;;;;;;;0.43;0.35;;;;;;;;;;5040345;28;20076;-62
2023/12/27 01:40:00;;;;;;;0.50;0.15;;;;;;;;;;5040494;28;20485;-62
2023/12/27 01:42:26;;;;;;;0.20;0.20;;;;;;;;;;5040914;28;20041;-62
2023/12/27 01:44:52;;;;;;;0.30;0.20;;;;;;;;;;5039898;28;20033;-62
2023/12/27 01:47:18;;;;;;;0.20;0.20;;;;;;;;;;5041386;28;20465;-62
2023/12/27 01:49:44;;;;;;;0.63;0.30;;;;;;;;;;5044550;28;20087;-62
2023/12/27 01:52:11;;;;;;;0.70;0.30;;;;;;;;;;5044943;28;20044;-62
2023/12/27 01:54:37;;;;;;;0.47;0.30;;;;;;;;;;5045125;28;20041;-63
2023/12/27 01:57:03;;;;;;;1.27;0.20;;;;;;;;;;5044839;28;20041;-63
2023/12/27 01:59:29;;;;;;;0.20;0.20;;;;;;;;;;5045111;28;20517;-62
2023/12/27 02:01:56;;;;;;;0.75;0.50;;;;;;;;;;5043624;28;20036;-62
2023/12/27 02:04:22;;;;;;;0.52;0.20;;;;;;;;;;5045435;28;20049;-62
2023/12/27 02:06:48;;;;;;;0.90;0.20;;;;;;;;;;5042930;28;20429;-62
2023/12/27 02:09:14;;;;;;;0.20;0.20;;;;;;;;;;5042523;28;20543;-62
2023/12/27 02:11:42;;;;;;;1.00;0.30;;;;;;;;;;5043052;28;20055;-62
2023/12/27 02:14:08;;;;;;;0.63;0.55;;;;;;;;;;5044822;28;20525;-62
2023/12/27 02:16:35;;;;;;;0.93;0.40;;;;;;;;;;5044291;28;20091;-62
2023/12/27 02:19:02;;;;;;;0.88;0.52;;;;;;;;;;5043431;28;20037;-62
2023/12/27 02:21:29;;;;;;;0.73;0.20;;;;;;;;;;5044569;28;20114;-62
2023/12/27 02:23:58;;;;;;;0.47;0.22;;;;;;;;;;5043662;28;20576;-62
2023/12/27 02:26:24;;;;;;;0.20;0.20;;;;;;;;;;5043829;28;20060;-62
2023/12/27 02:28:50;;;;;;;0.38;0.20;;;;;;;;;;5044442;28;20039;-62
2023/12/27 02:31:16;;;;;;;0.88;0.28;;;;;;;;;;5043521;28;20486;-62
2023/12/27 02:33:46;;;;;;;0.75;0.50;;;;;;;;;;5043239;28;20049;-62
2023/12/27 02:36:12;;;;;;;0.55;0.55;;;;;;;;;;5041683;28;20068;-62
2023/12/27 02:38:38;;;;;;;0.73;0.63;;;;;;;;;;5040495;28;20392;-62
2023/12/27 02:41:04;;;;;;;0.70;0.45;;;;;;;;;;5044227;28;20997;-62
2023/12/27 02:43:30;;;;;;;0.20;0.20;;;;;;;;;;5042651;28;20040;-62
2023/12/27 02:45:56;;;;;;;1.08;0.25;;;;;;;;;;5041266;28;20040;-62
2023/12/27 02:48:22;;;;;;;0.35;0.30;;;;;;;;;;5044554;28;20037;-62
2023/12/27 02:50:49;;;;;;;0.25;0.20;;;;;;;;;;5040601;28;20107;-62
2023/12/27 02:53:15;;;;;;;0.38;0.30;;;;;;;;;;5076634;28;20080;-62
2023/12/27 02:55:41;;;;;;;0.20;0.20;;;;;;;;;;5042904;28;20044;-62
2023/12/27 02:58:07;;;;;;;0.50;0.30;;;;;;;;;;5042487;28;20489;-62
2023/12/27 03:00:37;;;;;;;1.33;0.38;;;;;;;;;;5041806;28;20045;-62
2023/12/27 03:03:03;;;;;;;0.65;0.50;;;;;;;;;;5040580;28;20041;-62
2023/12/27 03:05:29;;;;;;;1.73;0.43;;;;;;;;;;5044553;28;20052;-62
2023/12/27 03:07:55;;;;;;;1.13;0.75;;;;;;;;;;5044471;28;20071;-62
2023/12/27 03:10:21;;;;;;;0.52;0.30;;;;;;;;;;5044792;28;20046;-62
2023/12/27 03:12:47;;;;;;;1.45;0.28;;;;;;;;;;5040890;28;20068;-62
2023/12/27 03:15:13;;;;;;;2.22;0.38;;;;;;;;;;5043342;28;20128;-62
2023/12/27 03:17:39;;;;;;;0.70;0.50;;;;;;;;;;5042952;28;20467;-62
2023/12/27 03:20:05;;;;;;;0.68;0.47;;;;;;;;;;5042234;28;20068;-62
2023/12/27 03:22:31;;;;;;;0.57;0.57;;;;;;;;;;5042302;28;20068;-62
2023/12/27 03:24:57;;;;;;;0.98;0.50;;;;;;;;;;5042734;28;20702;-62
2023/12/27 03:27:23;;;;;;;0.40;0.30;;;;;;;;;;5043606;28;20040;-62
2023/12/27 03:29:49;;;;;;;1.52;0.50;;;;;;;;;;5042488;28;20049;-62
2023/12/27 03:32:15;;;;;;;0.73;0.30;;;;;;;;;;5043914;28;20668;-62
2023/12/27 03:34:41;;;;;;;0.32;0.30;;;;;;;;;;5039470;28;20049;-62
2023/12/27 03:37:07;;;;;;;0.65;0.20;;;;;;;;;;5041054;28;20131;-62
2023/12/27 03:39:33;;;;;;;0.30;0.30;;;;;;;;;;5041852;28;20072;-62
2023/12/27 03:41:59;;;;;;;1.98;0.30;;;;;;;;;;5041203;28;20079;-62
2023/12/27 03:44:25;;;;;;;0.20;0.20;;;;;;;;;;5042736;28;20040;-62
2023/12/27 03:46:51;;;;;;;0.85;0.30;;;;;;;;;;5042290;28;20042;-62
2023/12/27 03:49:17;;;;;;;0.73;0.30;;;;;;;;;;5042026;28;20448;-62
2023/12/27 03:51:43;;;;;;;2.55;0.65;;;;;;;;;;5043622;28;20049;-62
2023/12/27 03:54:09;;;;;;;0.40;0.30;;;;;;;;;;5043097;28;20083;-62
2023/12/27 03:56:36;;;;;;;0.80;0.73;;;;;;;;;;5041168;28;20102;-62
2023/12/27 03:59:03;;;;;;;0.40;0.30;;;;;;;;;;5039406;28;20155;-62
2023/12/27 04:01:29;;;;;;;0.93;0.35;;;;;;;;;;5042119;28;20045;-62
2023/12/27 04:03:55;;;;;;;0.10;0.08;;;;;;;;;;5039838;28;20055;-62
2023/12/27 04:06:21;;;;;;;0.55;0.28;;;;;;;;;;5041670;28;20041;-62
2023/12/27 04:08:48;;;;;;;0.47;0.30;;;;;;;;;;5041651;28;20033;-62
2023/12/27 04:11:15;;;;;;;0.28;0.20;;;;;;;;;;5040816;28;20053;-62
2023/12/27 04:13:41;;;;;;;0.25;0.25;;;;;;;;;;5040026;28;20076;-61
2023/12/27 04:16:07;;;;;;;0.20;0.15;;;;;;;;;;5041467;28;20045;-62
2023/12/27 04:18:33;;;;;;;0.70;0.45;;;;;;;;;;5040561;28;20171;-62
2023/12/27 04:20:59;;;;;;;0.60;0.28;;;;;;;;;;5040888;28;20124;-62
2023/12/27 04:23:25;;;;;;;0.35;0.32;;;;;;;;;;5043226;28;20045;-62
2023/12/27 04:25:51;;;;;;;0.35;0.20;;;;;;;;;;5042155;28;20562;-63
2023/12/27 04:28:16;;;;;;;0.30;0.30;;;;;;;;;;5043875;28;20139;-63
2023/12/27 04:30:42;;;;;;;0.50;0.50;;;;;;;;;;5042915;28;20040;-63
2023/12/27 04:33:08;;;;;;;0.68;0.20;;;;;;;;;;5040652;28;20184;-62
2023/12/27 04:35:34;;;;;;;0.40;0.40;;;;;;;;;;5039621;28;20053;-63
2023/12/27 04:38:00;;;;;;;0.57;0.30;;;;;;;;;;5039477;28;20550;-63
2023/12/27 04:40:27;;;;;;;0.50;0.30;;;;;;;;;;5041936;28;20041;-62
2023/12/27 04:42:53;;;;;;;0.95;0.30;;;;;;;;;;5043485;28;20068;-62
2023/12/27 04:45:19;;;;;;;1.15;0.50;;;;;;;;;;5043221;28;20846;-62
2023/12/27 04:47:45;;;;;;;1.13;0.40;;;;;;;;;;5041169;28;20051;-62
2023/12/27 04:50:11;;;;;;;0.60;0.43;;;;;;;;;;5042827;28;20379;-63
2023/12/27 04:52:37;;;;;;;0.35;0.35;;;;;;;;;;5040362;28;20055;-63
2023/12/27 04:55:04;;;;;;;0.30;0.30;;;;;;;;;;5043479;28;20041;-63
2023/12/27 04:57:30;;;;;;;0.52;0.38;;;;;;;;;;5043003;28;20112;-63
2023/12/27 04:59:56;;;;;;;0.80;0.25;;;;;;;;;;5040030;28;20124;-62
2023/12/27 05:02:22;;;;;;;0.85;0.60;;;;;;;;;;5042028;28;20098;-63
2023/12/27 05:04:48;;;;;;;0.55;0.38;;;;;;;;;;5038675;28;20739;-63
2023/12/27 05:07:14;;;;;;;1.15;0.40;;;;;;;;;;5040707;28;20098;-62
2023/12/27 05:09:40;;;;;;;0.40;0.20;;;;;;;;;;5040783;28;20611;-62
2023/12/27 05:12:06;;;;;;;0.40;0.30;;;;;;;;;;5039132;28;20609;-62
2023/12/27 05:14:32;;;;;;;0.30;0.30;;;;;;;;;;5043212;28;20041;-62
2023/12/27 05:16:58;;;;;;;0.90;0.40;;;;;;;;;;5041872;28;20040;-62
2023/12/27 05:19:24;;;;;;;0.77;0.47;;;;;;;;;;5041471;28;20049;-62
2023/12/27 05:21:50;;;;;;;0.40;0.40;;;;;;;;;;5042829;28;20409;-62
2023/12/27 05:24:16;;;;;;;0.98;0.20;;;;;;;;;;5042527;28;20045;-62
2023/12/27 05:26:42;;;;;;;1.05;0.50;;;;;;;;;;5041642;28;20073;-62
2023/12/27 05:29:08;;;;;;;1.85;1.20;;;;;;;;;;5041588;28;20044;-62
2023/12/27 05:31:34;;;;;;;0.60;0.20;;;;;;;;;;5040906;28;20070;-62
2023/12/27 05:34:00;;;;;;;0.82;0.40;;;;;;;;;;5037144;28;20420;-62
2023/12/27 05:36:26;;;;;;;0.50;0.40;;;;;;;;;;5041283;28;20039;-62
2023/12/27 05:38:52;;;;;;;2.17;0.80;;;;;;;;;;5041429;28;20132;-62
2023/12/27 05:41:24;;;;;;;0.73;0.40;;;;;;;;;;5042072;28;20044;-62
2023/12/27 05:43:50;;;;;;;1.10;0.40;;;;;;;;;;5038798;28;20068;-62
2023/12/27 05:46:16;;;;;;;0.63;0.47;;;;;;;;;;5041065;28;20041;-63
2023/12/27 05:48:42;;;;;;;1.90;0.50;;;;;;;;;;5038994;28;22058;-63
2023/12/27 05:51:08;;;;;;;0.45;0.40;;;;;;;;;;5040958;28;20147;-62
2023/12/27 05:53:34;;;;;;;2.08;0.70;;;;;;;;;;5041752;28;20049;-62
2023/12/27 05:56:00;;;;;;;0.93;0.60;;;;;;;;;;5039345;28;20362;-62
2023/12/27 05:58:26;;;;;;;0.70;0.57;;;;;;;;;;5040041;28;20045;-62
2023/12/27 06:00:52;;;;;;;0.63;0.60;;;;;;;;;;5040514;28;20045;-63
2023/12/27 06:03:18;;;;;;;0.80;0.65;;;;;;;;;;5041003;28;20124;-62
2023/12/27 06:05:44;;;;;;;0.82;0.60;;;;;;;;;;5040388;28;20378;-62
2023/12/27 06:08:10;;;;;;;0.70;0.70;;;;;;;;;;5040848;28;20099;-62
2023/12/27 06:10:36;;;;;;;0.73;0.50;;;;;;;;;;5040464;28;20049;-62
2023/12/27 06:13:03;;;;;;;0.32;0.30;;;;;;;;;;5039328;28;20049;-62
2023/12/27 06:15:29;;;;;;;0.90;0.70;;;;;;;;;;5039207;28;20497;-62
2023/12/27 06:17:55;;;;;;;1.92;0.75;;;;;;;;;;5041514;28;20043;-63
2023/12/27 06:20:21;;;;;;;0.70;0.70;;;;;;;;;;5041531;28;20110;-63
2023/12/27 06:22:47;;;;;;;1.60;0.70;;;;;;;;;;5038718;28;20047;-62
2023/12/27 06:25:13;;;;;;;1.52;0.70;;;;;;;;;;5039387;28;20080;-62
2023/12/27 06:27:40;;;;;;;0.40;0.32;;;;;;;;;;5038069;28;20045;-62
2023/12/27 06:30:08;;;;;;;0.60;0.50;;;;;;;;;;5040269;28;20056;-62
2023/12/27 06:32:34;;;;;;;0.32;0.32;;;;;;;;;;5040977;28;20049;-62
2023/12/27 06:35:00;;;;;;;0.40;0.40;;;;;;;;;;5043906;28;20048;-62
2023/12/27 06:37:26;;;;;;;0.40;0.40;;;;;;;;;;5043309;28;20049;-62
2023/12/27 06:39:52;;;;;;;0.20;0.20;;;;;;;;;;5045140;28;20083;-62
2023/12/27 06:42:18;;;;;;;0.32;0.32;;;;;;;;;;5045070;28;20037;-64
2023/12/27 06:44:44;;;;;;;1.10;0.30;;;;;;;;;;5042146;28;20051;-63
2023/12/27 06:47:10;;;;;;;0.65;0.40;;;;;;;;;;5042873;28;20114;-63
2023/12/27 06:49:36;;;;;;;1.05;0.50;;;;;;;;;;5043353;28;20107;-63
2023/12/27 06:52:02;;;;;;;0.57;0.40;;;;;;;;;;5043857;28;20115;-63
2023/12/27 06:54:28;;;;;;;0.28;0.28;;;;;;;;;;5045060;28;20048;-63
2023/12/27 06:56:53;;;;;;;0.80;0.68;;;;;;;;;;5042378;28;20033;-62
2023/12/27 06:59:21;;;;;;;2.25;0.90;;;;;;;;;;5041435;28;20164;-62
2023/12/27 07:01:47;;;;;;;2.38;1.10;;;;;;;;;;5046012;28;20874;-62
2023/12/27 07:04:13;;;;;;;4.60;2.03;;;;;;;;;;5043718;28;20041;-62
2023/12/27 07:06:39;;;;;;;2.47;0.80;;;;;;;;;;5041800;28;20045;-62
2023/12/27 07:09:07;;;;;;;1.17;0.77;;;;;;;;;;5046736;28;20124;-62
2023/12/27 07:11:33;;;;;;;1.83;0.95;;;;;;;;;;5042681;28;20049;-63
2023/12/27 07:13:59;;;;;;;0.93;0.60;;;;;;;;;;5044023;28;20083;-62
2023/12/27 07:16:25;;;;;;;0.85;0.60;;;;;;;;;;5045057;28;20056;-62
2023/12/27 07:18:51;;;;;;;1.30;0.73;;;;;;;;;;5076657;28;20048;-62
2023/12/27 07:21:17;;;;;;;1.55;0.77;;;;;;;;;;5045686;28;20044;-62
2023/12/27 07:23:43;;;;;;;0.80;0.75;;;;;;;;;;5043736;28;20044;-62
2023/12/27 07:26:13;;;;;;;0.65;0.63;;;;;;;;;;5043818;28;20367;-63
2023/12/27 07:28:39;;;;;;;1.65;0.75;;;;;;;;;;5042564;28;20040;-63
2023/12/27 07:31:06;;;;;;;2.38;0.60;;;;;;;;;;5043275;28;20039;-63
2023/12/27 07:33:32;;;;;;;1.48;0.52;;;;;;;;;;5043047;28;20065;-63
2023/12/27 07:35:58;;;;;;;1.15;0.50;;;;;;;;;;5042646;28;20131;-62
2023/12/27 07:38:25;;;;;;;1.38;0.60;;;;;;;;;;5043058;28;20037;-63
2023/12/27 07:40:51;;;;;;;1.23;0.70;;;;;;;;;;5040007;28;20052;-62
2023/12/27 07:43:17;;;;;;;2.15;0.63;;;;;;;;;;5045922;28;20052;-62
2023/12/27 07:45:44;;;;;;;1.02;0.82;;;;;;;;;;5044641;28;20095;-62
2023/12/27 07:48:10;;;;;;;1.00;0.70;;;;;;;;;;5041326;28;20064;-63
2023/12/27 07:50:37;;;;;;;3.35;0.95;;;;;;;;;;5043640;28;20187;-62
2023/12/27 07:53:04;;;;;;;2.20;0.60;;;;;;;;;;5043614;28;20120;-62
2023/12/27 07:55:30;;;;;;;3.30;0.82;;;;;;;;;;5043266;28;20056;-62
2023/12/27 07:57:56;;;;;;;3.13;1.40;;;;;;;;;;5041833;28;20390;-62
2023/12/27 08:00:22;;;;;;;3.28;0.63;;;;;;;;;;5043919;28;20122;-62
2023/12/27 08:02:48;;;;;;;3.50;1.23;;;;;;;;;;5043571;28;20481;-62
2023/12/27 08:05:14;;;;;;;4.07;0.75;;;;;;;;;;5042827;28;20041;-62
2023/12/27 08:07:40;;;;;;;2.63;0.80;;;;;;;;;;5041175;28;20041;-62
2023/12/27 08:10:06;;;;;;;3.22;1.35;;;;;;;;;;5039830;28;20048;-62
2023/12/27 08:12:32;;;;;;;1.50;0.57;;;;;;;;;;5040818;28;20041;-62
2023/12/27 08:14:58;;;;;;;3.42;1.50;;;;;;;;;;5040363;28;20068;-62
2023/12/27 08:17:25;;;;;;;3.60;1.17;;;;;;;;;;5043360;28;20045;-62
2023/12/27 08:19:51;;;;;;;4.32;1.35;;;;;;;;;;5041216;28;20064;-62
2023/12/27 08:22:17;;;;;;;6.05;1.63;;;;;;;;;;5041180;28;20053;-62
2023/12/27 08:24:43;;;;;;;2.55;0.90;;;;;;;;;;5040642;28;20033;-62
2023/12/27 08:27:09;;;;;;;3.70;1.15;;;;;;;;;;5043166;28;20045;-62
2023/12/27 08:29:35;;;;;;;2.95;1.00;;;;;;;;;;5041814;28;20049;-62
2023/12/27 08:32:01;;;;;;;3.10;1.50;;;;;;;;;;5039472;28;20062;-62
2023/12/27 08:34:27;;;;;;;2.83;1.23;;;;;;;;;;5040201;28;20544;-63
2023/12/27 08:36:53;;;;;;;3.15;1.10;;;;;;;;;;5039920;28;20227;-63
2023/12/27 08:39:20;;;;;;;2.40;1.48;;;;;;;;;;5042558;28;20084;-63
2023/12/27 08:41:46;;;;;;;3.15;1.50;;;;;;;;;;5038385;28;20045;-63
2023/12/27 08:44:12;;;;;;;1.35;0.90;;;;;;;;;;5039815;28;20536;-63
2023/12/27 08:46:39;;;;;;;1.08;0.80;;;;;;;;;;5039593;28;20055;-63
2023/12/27 08:49:05;;;;;;;2.50;1.35;;;;;;;;;;5038276;28;20037;-62
2023/12/27 08:51:31;;;;;;;2.92;1.38;;;;;;;;;;5042416;28;20114;-62
2023/12/27 08:53:58;;;;;;;6.25;2.00;;;;;;;;;;5041647;28;20207;-62
2023/12/27 08:56:24;;;;;;;3.63;1.73;;;;;;;;;;5043077;28;20128;-62
2023/12/27 08:58:50;;;;;;;2.13;1.55;;;;;;;;;;5040908;28;20658;-62
2023/12/27 09:01:17;;;;;;;2.47;1.85;;;;;;;;;;5042679;28;20063;-62
2023/12/27 09:03:43;;;;;;;2.20;1.80;;;;;;;;;;5040664;28;20037;-63
2023/12/27 09:06:09;;;;;;;2.30;1.48;;;;;;;;;;5040783;28;20279;-63
2023/12/27 09:08:38;;;;;;;3.00;1.63;;;;;;;;;;5040583;28;20409;-63
2023/12/27 09:11:04;;;;;;;2.30;2.10;;;;;;;;;;5041006;28;20033;-63
2023/12/27 09:13:30;;;;;;;7.10;2.70;;;;;;;;;;5037910;28;20135;-62
2023/12/27 09:15:56;;;;;;;5.88;1.85;;;;;;;;;;5040761;28;20139;-62
2023/12/27 09:18:22;;;;;;;4.55;2.10;;;;;;;;;;5039138;28;20045;-62
2023/12/27 09:20:48;;;;;;;3.15;2.22;;;;;;;;;;5034573;28;20048;-62
2023/12/27 09:23:14;;;;;;;5.32;2.03;;;;;;;;;;5043397;28;20080;-62
2023/12/27 09:25:40;;;;;;;5.00;2.33;;;;;;;;;;5040655;28;20661;-63
2023/12/27 09:28:06;;;;;;;5.85;2.75;;;;;;;;;;5041801;28;20223;-63
2023/12/27 09:30:32;;;;;;;4.75;2.42;;;;;;;;;;5040984;28;20502;-63
2023/12/27 09:32:58;;;;;;;3.10;2.28;;;;;;;;;;5045197;28;20082;-63
2023/12/27 09:35:24;;;;;;;5.65;2.38;;;;;;;;;;5037452;28;20532;-62
2023/12/27 09:37:50;;;;;;;4.50;3.17;;;;;;;;;;5045806;28;20127;-63
2023/12/27 09:40:16;;;;;;;4.32;2.25;;;;;;;;;;5045186;28;20068;-63
2023/12/27 09:42:44;;;;;;;5.03;2.10;;;;;;;;;;5043853;28;20462;-63
2023/12/27 09:45:14;;;;;;;5.13;2.55;;;;;;;;;;5044521;28;20076;-63
2023/12/27 09:47:41;;;;;;;5.88;2.80;;;;;;;;;;5044809;28;20051;-63
2023/12/27 09:50:07;;;;;;;6.22;3.03;;;;;;;;;;5045176;28;20179;-62
2023/12/27 09:52:34;;;;;;;4.07;3.03;;;;;;;;;;5045527;28;20500;-63
2023/12/27 09:55:00;;;;;;;7.38;3.15;;;;;;;;;;5043061;28;20036;-63
2023/12/27 09:57:26;;;;;;;5.93;2.38;;;;;;;;;;5042054;28;20047;-63
2023/12/27 09:59:53;;;;;;;4.88;2.03;;;;;;;;;;5039509;28;20041;-63
2023/12/27 10:02:20;;;;;;;4.30;2.75;;;;;;;;;;5040424;28;20605;-63
2023/12/27 10:04:57;;;;;;;5.45;2.20;;;;;;;;;;5037125;28;20055;-63
2023/12/27 10:07:24;;;;;;;5.57;1.95;;;;;;;;;;5043493;28;20298;-63
2023/12/27 10:09:50;;;;;;;7.88;2.78;;;;;;;;;;5046621;28;20516;-63
2023/12/27 10:12:16;;;;;;;4.00;2.50;;;;;;;;;;5042625;28;20630;-62
2023/12/27 10:14:43;;;;;;;4.90;3.00;;;;;;;;;;5037414;28;20480;-63
2023/12/27 10:17:09;;;;;;;2.78;1.90;;;;;;;;;;5044317;28;20138;-62
2023/12/27 10:19:38;;;;;;;5.22;2.28;;;;;;;;;;5043676;28;20043;-62
2023/12/27 10:22:04;;;;;;;4.88;2.95;;;;;;;;;;5046988;28;20060;-62
2023/12/27 10:24:30;;;;;;;7.18;3.22;;;;;;;;;;5045956;28;20052;-62
2023/12/27 10:26:59;;;;;;;5.40;2.92;;;;;;;;;;5044996;28;20087;-59
2023/12/27 10:29:26;;;;;;;8.35;3.90;;;;;;;;;;5041725;28;20041;-62
2023/12/27 10:31:51;;;;;;;9.98;3.58;;;;;;;;;;5047616;28;20094;-60
2023/12/27 10:34:18;;;;;;;4.68;2.90;;;;;;;;;;5035898;28;20574;-62
2023/12/27 10:36:44;;;;;;;5.75;3.28;;;;;;;;;;5038808;28;20081;-62
2023/12/27 10:39:10;;;;;;;5.18;3.35;;;;;;;;;;5038392;28;20050;-62
2023/12/27 10:41:37;;;;;;;8.52;3.03;;;;;;;;;;5044099;28;20687;-62
2023/12/27 10:44:07;;;;;;;5.53;3.53;;;;;;;;;;5044092;28;20037;-62
2023/12/27 10:46:34;;;;;;;5.70;3.80;;;;;;;;;;5046620;28;20055;-62
2023/12/27 10:49:04;;;;;;;10.10;4.50;;;;;;;;;;5039848;28;20481;-62
2023/12/27 10:51:30;;;;;;;10.02;4.80;;;;;;;;;;5044669;28;20520;-62
2023/12/27 10:54:00;;;;;;;11.32;5.07;;;;;;;;;;5046626;28;20119;-62
2023/12/27 10:56:26;;;;;;;7.30;5.25;;;;;;;;;;5046543;28;20033;-62
2023/12/27 10:58:53;;;;;;;12.57;5.28;;;;;;;;;;5046081;28;21345;-62
2023/12/27 11:01:20;;;;;;;7.53;4.93;;;;;;;;;;5047372;28;20045;-62
2023/12/27 11:03:47;;;;;;;6.68;4.97;;;;;;;;;;5044682;28;20033;-63
2023/12/27 11:06:16;;;;;;;7.38;4.65;;;;;;;;;;5043513;28;20456;-63
2023/12/27 11:08:44;;;;;;;9.23;5.03;;;;;;;;;;5044868;28;20041;-62
2023/12/27 11:11:10;;;;;;;9.40;5.15;;;;;;;;;;5045987;28;20060;-62
2023/12/27 11:13:37;;;;;;;8.23;4.30;;;;;;;;;;5045052;28;20041;-62
2023/12/27 11:16:04;;;;;;;9.85;4.88;;;;;;;;;;5045275;28;20119;-62
2023/12/27 11:18:31;;;;;;;9.75;4.53;;;;;;;;;;5046556;28;20102;-62
2023/12/27 11:20:57;;;;;;;8.10;4.63;;;;;;;;;;5045681;28;20087;-62
2023/12/27 11:23:24;;;;;;;10.20;5.10;;;;;;;;;;5045051;28;20459;-62
2023/12/27 11:25:52;;;;;;;8.65;5.22;;;;;;;;;;5046382;28;20033;-62
2023/12/27 11:28:19;;;;;;;11.48;5.07;;;;;;;;;;5044837;28;20037;-62
2023/12/27 11:30:46;;;;;;;15.55;5.05;;;;;;;;;;5042310;28;20056;-63
2023/12/27 11:33:18;;;;;;;8.57;4.88;;;;;;;;;;5042102;28;20072;-62
2023/12/27 11:35:46;;;;;;;9.63;4.93;;;;;;;;;;5047000;28;20457;-62
2023/12/27 11:38:13;;;;;;;9.30;4.93;;;;;;;;;;5042464;28;20111;-62
2023/12/27 11:40:40;;;;;;;7.38;4.90;;;;;;;;;;5046106;28;20088;-62
2023/12/27 11:43:08;;;;;;;10.60;5.43;;;;;;;;;;5043324;28;20053;-63
2023/12/27 11:45:58;;;;;;;12.55;5.88;;;;;;;;;;5045032;28;20388;-62
2023/12/27 11:48:24;;;;;;;8.48;5.70;;;;;;;;;;5042944;28;20049;-63
2023/12/27 11:50:50;;;;;;;8.88;4.97;;;;;;;;;;5047471;28;20118;-63
2023/12/27 11:53:18;;;;;;;12.18;5.90;;;;;;;;;;5045242;28;20108;-63
2023/12/27 11:55:46;;;;;;;10.25;5.32;;;;;;;;;;5049183;28;20041;-63
2023/12/27 11:58:15;;;;;;;9.00;5.53;;;;;;;;;;5048451;28;20083;-63
2023/12/27 12:00:41;;;;;;;7.28;4.68;;;;;;;;;;5048310;28;20128;-63
2023/12/27 12:03:20;;;;;;;5.15;4.63;;;;;;;;;;5044844;28;20036;-63
2023/12/27 12:05:58;;;;;;;8.68;5.20;;;;;;;;;;5040714;28;20038;-63
2023/12/27 12:08:45;;;;;;;6.75;5.20;;;;;;;;;;5037570;28;20072;-63
2023/12/27 12:11:13;;;;;;;9.38;5.10;;;;;;;;;;5044753;28;20151;-63
2023/12/27 12:13:39;;;;;;;10.18;6.03;;;;;;;;;;5045971;28;20512;-62
2023/12/27 12:16:06;;;;;;;6.07;5.10;;;;;;;;;;5045327;28;20167;-62
2023/12/27 12:18:34;;;;;;;8.68;5.30;;;;;;;;;;5043630;28;20037;-62
2023/12/27 12:21:00;;;;;;;9.00;4.85;;;;;;;;;;5041957;28;20045;-62
2023/12/27 12:23:30;;;;;;;7.72;4.78;;;;;;;;;;5040563;28;20038;-62
2023/12/27 12:26:03;;;;;;;8.65;4.80;;;;;;;;;;5038788;28;20119;-62
2023/12/27 12:28:29;;;;;;;10.50;5.78;;;;;;;;;;5037222;28;20037;-62
2023/12/27 12:30:56;;;;;;;10.68;6.30;;;;;;;;;;5040888;28;20387;-62
2023/12/27 12:33:22;;;;;;;10.50;5.53;;;;;;;;;;5045310;28;20512;-63
2023/12/27 12:35:49;;;;;;;7.75;4.78;;;;;;;;;;5045450;28;20040;-63
2023/12/27 12:38:17;;;;;;;10.25;6.18;;;;;;;;;;5042942;28;20166;-63
2023/12/27 12:40:44;;;;;;;7.38;4.78;;;;;;;;;;5041100;28;20047;-63
2023/12/27 12:43:10;;;;;;;7.28;5.28;;;;;;;;;;5041263;28;20646;-63
2023/12/27 12:45:36;;;;;;;6.68;4.80;;;;;;;;;;5044093;28;20048;-63
2023/12/27 12:48:02;;;;;;;6.88;5.95;;;;;;;;;;5042312;28;20051;-63
2023/12/27 12:50:28;;;;;;;7.90;5.68;;;;;;;;;;5044789;28;20448;-63
2023/12/27 12:52:54;;;;;;;6.10;4.57;;;;;;;;;;5044334;28;20049;-62
2023/12/27 12:55:28;;;;;;;5.18;4.50;;;;;;;;;;5045439;28;20032;-63
2023/12/27 12:57:54;;;;;;;7.20;5.10;;;;;;;;;;5044229;28;20068;-63
2023/12/27 13:00:21;;;;;;;10.25;5.82;;;;;;;;;;5045173;28;20041;-63
2023/12/27 13:02:53;;;;;;;6.38;5.07;;;;;;;;;;5044520;28;20076;-62
2023/12/27 13:05:20;;;;;;;5.15;4.65;;;;;;;;;;5043131;28;20611;-62
2023/12/27 13:07:48;;;;;;;5.53;4.78;;;;;;;;;;5045800;28;20037;-62
2023/12/27 13:10:14;;;;;;;7.80;4.78;;;;;;;;;;5045451;28;20499;-62
2023/12/27 13:12:41;;;;;;;4.80;4.30;;;;;;;;;;5046276;28;20047;-62
2023/12/27 13:15:07;;;;;;;4.93;4.43;;;;;;;;;;5044770;28;20051;-62
2023/12/27 13:17:33;;;;;;;5.38;4.88;;;;;;;;;;5045024;28;20067;-62
2023/12/27 13:19:59;;;;;;;7.57;5.80;;;;;;;;;;5044303;28;20401;-63
2023/12/27 13:22:25;;;;;;;9.18;6.80;;;;;;;;;;5037506;28;20127;-63
2023/12/27 13:24:51;;;;;;;7.50;5.70;;;;;;;;;;5044845;28;20114;-63
2023/12/27 13:27:17;;;;;;;6.18;5.57;;;;;;;;;;5044565;28;20044;-63
2023/12/27 13:29:43;;;;;;;6.47;5.88;;;;;;;;;;5045422;28;20036;-63
2023/12/27 13:32:09;;;;;;;7.88;6.50;;;;;;;;;;5040750;28;20045;-63
2023/12/27 13:34:36;;;;;;;6.93;6.32;;;;;;;;;;5044227;28;20037;-63
2023/12/27 13:37:02;;;;;;;9.95;7.20;;;;;;;;;;5044214;28;20563;-62
2023/12/27 13:39:28;;;;;;;7.75;6.68;;;;;;;;;;5041590;28;20107;-62
2023/12/27 13:41:55;;;;;;;9.00;7.50;;;;;;;;;;5034724;28;20120;-62
2023/12/27 13:44:21;;;;;;;7.88;7.03;;;;;;;;;;5045590;28;20044;-62
2023/12/27 13:46:47;;;;;;;7.45;6.75;;;;;;;;;;5047549;28;20039;-62
2023/12/27 13:49:13;;;;;;;7.53;6.82;;;;;;;;;;5044967;28;20037;-62
2023/12/27 13:51:39;;;;;;;9.23;8.25;;;;;;;;;;5044608;28;21074;-63
2023/12/27 13:54:07;;;;;;;7.70;6.90;;;;;;;;;;5047233;28;20595;-63
2023/12/27 13:56:34;;;;;;;10.60;8.95;;;;;;;;;;5048202;28;20044;-63
2023/12/27 13:59:00;;;;;;;9.15;8.25;;;;;;;;;;5047776;28;20611;-63
2023/12/27 14:01:26;;;;;;;8.20;7.40;;;;;;;;;;5047451;28;20033;-62
2023/12/27 14:03:52;;;;;;;9.85;8.88;;;;;;;;;;5048289;28;20063;-62
2023/12/27 14:06:18;;;;;;;10.45;8.70;;;;;;;;;;5046364;28;20043;-62
2023/12/27 14:08:44;;;;;;;11.50;9.05;;;;;;;;;;5048950;28;20048;-62
2023/12/27 14:11:10;;;;;;;10.68;9.57;;;;;;;;;;5047531;28;20240;-63
2023/12/27 14:13:36;;;;;;;12.88;9.23;;;;;;;;;;5048681;28;20194;-63
2023/12/27 14:16:03;;;;;;;10.63;9.02;;;;;;;;;;5049072;28;20037;-62
2023/12/27 14:18:29;;;;;;;11.52;10.32;;;;;;;;;;5039287;28;20041;-62
2023/12/27 14:20:55;;;;;;;11.10;9.88;;;;;;;;;;5038885;28;20033;-62
2023/12/27 14:23:21;;;;;;;8.98;8.18;;;;;;;;;;5038904;28;20091;-63
2023/12/27 14:25:47;;;;;;;12.15;10.90;;;;;;;;;;5044334;28;20118;-62
2023/12/27 14:28:13;;;;;;;12.07;10.32;;;;;;;;;;5043687;28;20048;-61
2023/12/27 14:30:39;;;;;;;13.52;12.13;;;;;;;;;;5047238;28;20537;-61
2023/12/27 14:33:05;;;;;;;13.65;11.63;;;;;;;;;;5046822;28;20048;-62
2023/12/27 14:35:31;;;;;;;12.57;11.18;;;;;;;;;;5047932;28;20174;-63
2023/12/27 14:37:57;;;;;;;15.57;12.43;;;;;;;;;;5047301;28;20119;-63